Time;durP1;ratioP1;P1;durP2;ratioP2;P2;SDS_P1;SDS_P2;PMS_P1;PMS_P2;Temp;Humidity;BMP_temperature;BMP_pressure;BME280_temperature;BME280_humidity;BME280_pressure;Samples;Min_cycle;Max_cycle;Signal;HPM_P1;HPM_P2
2023/11/08 00:01:00;;;;;;;4.75;1.63;;;8.40;99.90;;;8.02;100.00;100137.63;5018199;28;20050;-80
2023/11/08 00:03:26;;;;;;;2.63;1.35;;;8.30;99.90;;;8.04;100.00;100130.94;5017165;28;20096;-80
2023/11/08 00:05:52;;;;;;;5.72;1.50;;;8.40;99.90;;;8.07;100.00;100132.41;5018242;28;20045;-80
2023/11/08 00:08:17;;;;;;;8.02;2.03;;;8.40;99.90;;;8.07;100.00;100125.06;5019173;28;20041;-79
2023/11/08 00:10:44;;;;;;;3.40;1.50;;;8.40;99.90;;;8.13;100.00;100131.53;5019094;28;20070;-80
2023/11/08 00:13:10;;;;;;;2.35;1.48;;;8.40;99.90;;;8.13;100.00;100133.44;5014039;28;20065;-80
2023/11/08 00:15:35;;;;;;;4.78;1.50;;;8.40;99.90;;;8.15;100.00;100129.44;5014303;28;20394;-80
2023/11/08 00:18:01;;;;;;;6.25;1.63;;;8.50;99.90;;;8.11;100.00;100128.19;5013830;28;20037;-80
2023/11/08 00:20:27;;;;;;;6.50;1.40;;;8.50;99.90;;;8.13;100.00;100120.66;5014020;28;20096;-80
2023/11/08 00:22:52;;;;;;;3.58;1.33;;;8.50;99.90;;;8.20;100.00;100131.53;5018359;28;20041;-80
2023/11/08 00:25:18;;;;;;;4.45;1.35;;;8.50;99.90;;;8.23;100.00;100128.38;5013900;28;20052;-80
2023/11/08 00:27:44;;;;;;;6.65;1.40;;;8.50;99.90;;;8.27;100.00;100139.66;5020503;28;20044;-80
2023/11/08 00:30:11;;;;;;;3.58;1.40;;;8.60;99.90;;;8.26;100.00;100130.66;5026676;28;20038;-80
2023/11/08 00:32:37;;;;;;;5.63;1.70;;;8.60;99.90;;;8.33;100.00;100141.53;5019833;28;20041;-79
2023/11/08 00:35:04;;;;;;;4.00;1.42;;;8.70;99.90;;;8.26;100.00;100118.97;5034204;28;20295;-80
2023/11/08 00:37:30;;;;;;;7.88;1.90;;;8.70;99.90;;;8.32;100.00;100128.97;5015860;28;20117;-80
2023/11/08 00:39:57;;;;;;;5.43;1.60;;;8.80;99.90;;;8.38;100.00;100127.28;5019098;28;20042;-79
2023/11/08 00:42:23;;;;;;;3.80;1.58;;;8.80;99.90;;;8.36;100.00;100132.94;5015686;28;20042;-79
2023/11/08 00:44:48;;;;;;;7.05;1.70;;;8.80;99.90;;;8.33;100.00;100133.38;5016129;28;20037;-79
2023/11/08 00:47:15;;;;;;;4.60;1.40;;;8.80;99.90;;;8.47;100.00;100134.97;5019581;28;20478;-79
2023/11/08 00:49:41;;;;;;;4.45;1.40;;;8.90;99.90;;;8.46;100.00;100127.84;5019981;28;20030;-80
2023/11/08 00:52:07;;;;;;;5.78;1.55;;;8.90;99.90;;;8.51;100.00;100132.69;5022018;28;20034;-81
2023/11/08 00:54:33;;;;;;;4.63;1.50;;;8.90;99.90;;;8.46;100.00;100130.56;5012064;28;20129;-80
2023/11/08 00:57:00;;;;;;;4.57;1.70;;;8.90;99.90;;;8.49;100.00;100138.38;5028329;28;20140;-80
2023/11/08 00:59:26;;;;;;;5.13;1.60;;;8.90;99.90;;;8.48;100.00;100125.75;5015900;28;20076;-79
2023/11/08 01:01:52;;;;;;;3.47;1.60;;;9.00;99.90;;;8.52;100.00;100131.63;5018502;28;20486;-81
2023/11/08 01:04:18;;;;;;;5.45;1.85;;;9.00;99.90;;;8.60;100.00;100131.38;5018509;28;20041;-79
2023/11/08 01:06:44;;;;;;;3.97;1.50;;;9.00;99.90;;;8.60;100.00;100142.25;5015994;28;20045;-80
2023/11/08 01:09:11;;;;;;;4.00;1.52;;;9.00;99.90;;;8.58;100.00;100143.53;5014614;28;20115;-80
2023/11/08 01:11:37;;;;;;;7.72;1.58;;;9.00;99.90;;;8.66;100.00;100143.28;5013477;28;20125;-80
2023/11/08 01:14:04;;;;;;;3.20;1.42;;;9.00;99.90;;;8.63;100.00;100135.56;5011978;28;20072;-79
2023/11/08 01:16:31;;;;;;;4.07;1.70;;;9.00;99.90;;;8.63;100.00;100139.13;5012888;28;20076;-79
2023/11/08 01:18:57;;;;;;;4.28;1.60;;;9.00;99.90;;;8.60;100.00;100141.44;5018663;28;20038;-79
2023/11/08 01:21:23;;;;;;;6.72;2.20;;;9.10;99.90;;;8.64;100.00;100142.69;5014518;28;20129;-79
2023/11/08 01:23:49;;;;;;;6.07;1.80;;;9.10;99.90;;;8.66;100.00;100143.28;5016100;28;20041;-80
2023/11/08 01:26:15;;;;;;;4.13;2.03;;;9.10;99.90;;;8.64;100.00;100139.94;5018359;28;20350;-80
2023/11/08 01:28:41;;;;;;;4.97;2.20;;;9.00;99.90;;;8.65;100.00;100143.53;5032915;28;20033;-80
2023/11/08 01:31:08;;;;;;;7.15;2.30;;;9.10;99.90;;;8.62;100.00;100142.91;5012272;28;20030;-78
2023/11/08 01:33:34;;;;;;;6.38;2.55;;;9.10;99.90;;;8.62;100.00;100139.34;5012496;28;20116;-78
2023/11/08 01:36:00;;;;;;;5.80;3.00;;;9.00;99.90;;;8.61;100.00;100130.34;5019046;28;20496;-78
2023/11/08 01:38:26;;;;;;;6.00;2.33;;;9.00;99.90;;;8.60;100.00;100138.72;5013974;28;20037;-78
2023/11/08 01:40:52;;;;;;;5.88;2.60;;;9.00;99.90;;;8.50;100.00;100133.75;5032264;28;20200;-78
2023/11/08 01:43:29;;;;;;;9.32;3.20;;;8.90;99.90;;;8.56;100.00;100137.50;5017920;28;20433;-78
2023/11/08 01:46:24;;;;;;;10.63;2.83;;;8.90;99.90;;;8.52;100.00;100130.81;5014029;28;20161;-78
2023/11/08 01:48:54;;;;;;;6.22;2.63;;;8.90;99.90;;;8.56;100.00;100137.50;5011129;28;20065;-78
2023/11/08 01:51:21;;;;;;;8.30;2.72;;;8.90;99.90;;;8.58;100.00;100143.53;5012403;28;20044;-78
2023/11/08 01:53:51;;;;;;;9.48;3.40;;;9.00;99.90;;;8.62;100.00;100137.47;5015800;28;20112;-78
2023/11/08 01:56:19;;;;;;;7.82;2.70;;;9.00;99.90;;;8.57;100.00;100126.38;5036887;28;20089;-78
2023/11/08 01:58:47;;;;;;;6.10;3.15;;;9.00;99.90;;;8.56;100.00;100132.06;5011875;28;20489;-77
2023/11/08 02:01:13;;;;;;;6.15;2.72;;;9.00;99.90;;;8.60;100.00;100139.53;5021737;28;20060;-78
2023/11/08 02:03:42;;;;;;;10.05;3.08;;;9.00;99.90;;;8.58;100.00;100132.66;5020030;28;20489;-79
2023/11/08 02:06:13;;;;;;;5.55;2.78;;;9.00;99.90;;;8.68;100.00;100134.94;5024838;28;20044;-79
2023/11/08 02:08:40;;;;;;;5.72;2.33;;;9.00;99.90;;;8.57;100.00;100131.81;5028265;28;20038;-80
2023/11/08 02:11:08;;;;;;;5.20;2.40;;;9.00;99.90;;;8.56;100.00;100132.88;5020956;28;20401;-79
2023/11/08 02:13:33;;;;;;;6.18;2.90;;;9.00;99.90;;;8.63;100.00;100132.84;5016593;28;20108;-79
2023/11/08 02:16:00;;;;;;;7.93;2.85;;;9.00;99.90;;;8.66;100.00;100137.84;5032666;28;20029;-79
2023/11/08 02:18:26;;;;;;;7.53;2.70;;;9.00;99.90;;;8.60;100.00;100136.81;5020696;28;20072;-79
2023/11/08 02:20:52;;;;;;;8.07;2.95;;;9.00;99.90;;;8.61;100.00;100133.06;5020889;28;20065;-79
2023/11/08 02:23:18;;;;;;;5.75;2.40;;;9.00;99.90;;;8.61;100.00;100134.94;5030103;28;20038;-79
2023/11/08 02:25:45;;;;;;;6.68;2.58;;;9.00;99.90;;;8.62;100.00;100133.91;5018020;28;20492;-79
2023/11/08 02:28:11;;;;;;;6.28;2.95;;;9.00;99.90;;;8.54;100.00;100143.13;5025457;28;20481;-80
2023/11/08 02:30:37;;;;;;;4.97;2.90;;;9.00;99.90;;;8.68;100.00;100143.09;5017523;28;20056;-79
2023/11/08 02:33:03;;;;;;;8.30;2.75;;;9.00;99.90;;;8.59;100.00;100134.34;5020577;28;20489;-78
2023/11/08 02:35:29;;;;;;;6.85;2.85;;;9.00;99.90;;;8.49;100.00;100130.22;5033787;28;20528;-79
2023/11/08 02:37:55;;;;;;;13.50;3.10;;;8.90;99.90;;;8.55;100.00;100130.38;5015567;28;20029;-79
2023/11/08 02:40:21;;;;;;;5.45;2.83;;;8.90;99.90;;;8.46;100.00;100132.47;5021820;28;20453;-79
2023/11/08 02:42:47;;;;;;;5.38;3.33;;;8.80;99.90;;;8.40;100.00;100123.28;5034208;28;20030;-79
2023/11/08 02:45:13;;;;;;;5.72;3.30;;;8.80;99.90;;;8.28;100.00;100114.97;5037564;28;20051;-79
2023/11/08 02:47:40;;;;;;;5.95;3.53;;;8.70;99.90;;;8.32;100.00;100120.81;5020940;28;20040;-78
2023/11/08 02:50:07;;;;;;;4.32;3.08;;;8.70;99.90;;;8.33;100.00;100127.94;5024934;28;20088;-78
2023/11/08 02:52:33;;;;;;;6.82;3.83;;;8.70;99.90;;;8.40;100.00;100126.00;5033866;28;20148;-78
2023/11/08 02:54:59;;;;;;;7.10;3.42;;;8.70;99.90;;;8.38;100.00;100122.69;5041428;28;20037;-79
2023/11/08 02:57:26;;;;;;;7.13;3.53;;;8.70;99.90;;;8.42;100.00;100120.38;5017464;28;20033;-79
2023/11/08 02:59:52;;;;;;;7.00;3.35;;;8.80;99.90;;;8.45;100.00;100131.63;5030262;28;20053;-79
2023/11/08 03:02:20;;;;;;;6.53;3.30;;;8.80;99.90;;;8.48;100.00;100125.75;5023027;28;20041;-79
2023/11/08 03:04:46;;;;;;;4.50;3.00;;;8.80;99.90;;;8.43;100.00;100122.84;5026283;28;20066;-78
2023/11/08 03:07:12;;;;;;;5.35;2.88;;;8.80;99.90;;;8.41;100.00;100114.09;5031715;28;20048;-79
2023/11/08 03:09:39;;;;;;;4.90;2.95;;;8.80;99.90;;;8.37;100.00;100118.28;5016861;28;20030;-79
2023/11/08 03:12:05;;;;;;;6.85;3.20;;;8.80;99.90;;;8.46;100.00;100125.16;5011843;28;20045;-79
2023/11/08 03:14:30;;;;;;;6.32;3.10;;;8.80;99.90;;;8.46;100.00;100122.41;5012092;28;20030;-78
2023/11/08 03:16:58;;;;;;;8.02;3.75;;;8.80;99.90;;;8.43;100.00;100113.88;5042556;28;20049;-79
2023/11/08 03:19:24;;;;;;;8.48;3.55;;;8.80;99.90;;;8.34;100.00;100105.13;5043407;28;20045;-78
2023/11/08 03:21:53;;;;;;;6.40;2.80;;;8.80;99.90;;;8.46;100.00;100124.31;5030050;28;20053;-78
2023/11/08 03:24:18;;;;;;;8.35;3.42;;;8.80;99.90;;;8.42;100.00;100121.19;5027640;28;20065;-79
2023/11/08 03:26:49;;;;;;;7.40;3.17;;;8.80;99.90;;;8.30;100.00;100112.88;5029836;28;20037;-79
2023/11/08 03:29:17;;;;;;;6.22;2.97;;;8.70;99.90;;;8.30;100.00;100117.50;5026494;28;20041;-78
2023/11/08 03:31:43;;;;;;;4.75;2.85;;;8.70;99.90;;;8.18;100.00;100106.44;5021561;28;20046;-79
2023/11/08 03:34:08;;;;;;;6.55;3.60;;;8.60;99.90;;;8.19;100.00;100113.56;5014926;28;20100;-79
2023/11/08 03:36:34;;;;;;;5.28;3.15;;;8.60;99.90;;;8.25;100.00;100120.03;5014804;28;20049;-79
2023/11/08 03:39:00;;;;;;;10.63;3.90;;;8.60;99.90;;;8.29;100.00;100119.34;5014965;28;20042;-79
2023/11/08 03:41:26;;;;;;;6.40;3.47;;;8.70;99.90;;;8.27;100.00;100117.91;5014913;28;20049;-79
2023/11/08 03:43:53;;;;;;;5.53;3.50;;;8.70;99.90;;;8.33;100.00;100111.63;5029763;28;20409;-79
2023/11/08 03:46:18;;;;;;;6.30;3.50;;;8.80;99.90;;;8.39;100.00;100124.34;5017758;28;20039;-79
2023/11/08 03:48:46;;;;;;;5.30;3.50;;;8.70;99.90;;;8.35;100.00;100117.66;5023142;28;20512;-79
2023/11/08 03:51:13;;;;;;;6.53;4.25;;;8.70;99.90;;;8.23;100.00;100113.97;5026927;28;20033;-79
2023/11/08 03:53:38;;;;;;;6.63;4.53;;;8.70;99.90;;;8.24;100.00;100127.31;5022166;28;20029;-79
2023/11/08 03:56:04;;;;;;;7.03;4.80;;;8.70;99.90;;;8.22;100.00;100118.56;5034583;28;20515;-79
2023/11/08 03:58:30;;;;;;;7.35;4.78;;;8.70;99.90;;;8.17;100.00;100113.75;5014452;28;20037;-78
2023/11/08 04:00:56;;;;;;;7.63;4.30;;;8.70;99.90;;;8.19;100.00;100119.00;5014617;28;20052;-79
2023/11/08 04:03:22;;;;;;;9.57;5.03;;;8.70;99.90;;;8.21;100.00;100119.59;5018540;28;20038;-78
2023/11/08 04:05:47;;;;;;;8.48;4.95;;;8.70;99.90;;;8.19;100.00;100117.09;5014861;28;20034;-78
2023/11/08 04:08:13;;;;;;;8.70;4.90;;;8.60;99.90;;;8.20;100.00;100120.66;5025223;28;20444;-78
2023/11/08 04:10:40;;;;;;;8.77;5.00;;;8.60;99.90;;;8.16;100.00;100130.28;5017724;28;20045;-79
2023/11/08 04:13:05;;;;;;;10.98;4.97;;;8.50;99.90;;;8.15;100.00;100137.59;5020283;28;20156;-78
2023/11/08 04:15:31;;;;;;;7.85;4.85;;;8.50;99.90;;;8.08;100.00;100125.91;5014063;28;20045;-78
2023/11/08 04:17:57;;;;;;;6.85;4.60;;;8.50;99.90;;;8.05;100.00;100139.94;5017437;28;20049;-78
2023/11/08 04:20:23;;;;;;;6.85;4.72;;;8.50;99.90;;;7.96;100.00;100128.44;5018108;28;20034;-78
2023/11/08 04:22:48;;;;;;;10.15;4.93;;;8.40;99.90;;;7.96;100.00;100131.16;5020061;28;20456;-78
2023/11/08 04:25:15;;;;;;;7.32;4.82;;;8.40;99.90;;;7.87;100.00;100119.69;5025861;28;20042;-78
2023/11/08 04:27:41;;;;;;;9.35;5.35;;;8.30;99.90;;;7.89;100.00;100123.03;5018879;28;20426;-78
2023/11/08 04:30:08;;;;;;;10.27;5.50;;;8.30;99.90;;;7.86;100.00;100122.63;5013988;28;20038;-78
2023/11/08 04:32:34;;;;;;;8.73;5.03;;;8.30;99.90;;;7.86;100.00;100131.59;5013974;28;20033;-78
2023/11/08 04:35:01;;;;;;;9.57;5.50;;;8.30;99.90;;;7.87;100.00;100129.72;5013487;28;20390;-78
2023/11/08 04:37:27;;;;;;;10.13;5.65;;;8.20;99.90;;;7.87;100.00;100122.41;5013913;28;20034;-78
2023/11/08 04:39:53;;;;;;;9.30;5.28;;;8.30;99.90;;;7.81;100.00;100111.53;5016362;28;20105;-78
2023/11/08 04:42:19;;;;;;;9.88;5.70;;;8.30;99.90;;;7.91;100.00;100133.69;5016999;28;20460;-78
2023/11/08 04:44:48;;;;;;;8.50;5.55;;;8.30;99.90;;;7.97;100.00;100137.44;5019217;28;20041;-78
2023/11/08 04:47:18;;;;;;;7.95;5.90;;;8.30;99.90;;;8.00;100.00;100135.13;5028790;28;20091;-78
2023/11/08 04:49:47;;;;;;;8.68;5.57;;;8.40;99.90;;;8.05;100.00;100142.66;5013085;28;20034;-78
2023/11/08 04:52:17;;;;;;;7.72;5.38;;;8.40;99.90;;;8.08;100.00;100139.50;5013489;28;20107;-78
2023/11/08 04:54:45;;;;;;;9.55;5.80;;;8.50;99.90;;;8.01;100.00;100134.06;5017670;28;20034;-79
2023/11/08 04:57:16;;;;;;;7.05;5.55;;;8.50;99.90;;;8.11;100.00;100139.06;5013627;28;20151;-79
2023/11/08 04:59:48;;;;;;;8.55;6.18;;;8.50;99.90;;;8.18;100.00;100148.03;5013288;28;20132;-79
2023/11/08 05:02:17;;;;;;;9.95;6.35;;;8.60;99.90;;;8.26;100.00;100151.59;5013130;28;22169;-80
2023/11/08 05:04:45;;;;;;;8.73;6.20;;;8.70;99.90;;;8.30;100.00;100161.78;5019063;28;20041;-79
2023/11/08 05:07:12;;;;;;;12.57;6.32;;;8.70;99.90;;;8.26;100.00;100163.28;5021525;28;20497;-79
2023/11/08 05:09:40;;;;;;;11.02;6.47;;;8.70;99.90;;;8.24;100.00;100162.66;5017575;28;20049;-79
2023/11/08 05:12:11;;;;;;;9.77;6.28;;;8.60;99.90;;;8.23;100.00;100149.28;5019238;28;20071;-79
2023/11/08 05:14:37;;;;;;;8.60;6.60;;;8.60;99.90;;;8.21;100.00;100163.91;5019357;28;20124;-79
2023/11/08 05:17:04;;;;;;;10.02;6.60;;;8.60;99.90;;;8.18;100.00;100167.06;5012496;28;20062;-79
2023/11/08 05:19:30;;;;;;;11.75;5.88;;;8.50;99.90;;;8.03;100.00;100152.88;5016492;28;20043;-79
2023/11/08 05:21:56;;;;;;;8.80;5.43;;;8.50;99.90;;;8.09;100.00;100170.19;5020079;28;20048;-79
2023/11/08 05:24:22;;;;;;;9.40;6.72;;;8.50;99.90;;;8.06;100.00;100160.63;5020345;28;20037;-78
2023/11/08 05:26:50;;;;;;;10.25;6.43;;;8.40;99.90;;;8.07;100.00;100173.16;5012459;28;20112;-78
2023/11/08 05:29:18;;;;;;;10.82;6.32;;;8.40;99.90;;;7.99;100.00;100171.47;5025241;28;20059;-79
2023/11/08 05:31:44;;;;;;;8.38;5.97;;;8.30;99.90;;;7.95;100.00;100177.53;5018276;28;20040;-79
2023/11/08 05:34:10;;;;;;;9.75;6.47;;;8.30;99.90;;;7.93;100.00;100172.34;5012498;28;20046;-79
2023/11/08 05:36:36;;;;;;;11.07;6.00;;;8.20;99.90;;;7.83;100.00;100161.91;5015887;28;20120;-79
2023/11/08 05:39:05;;;;;;;9.57;6.60;;;8.20;99.90;;;7.87;100.00;100163.13;5015665;28;20042;-79
2023/11/08 05:41:31;;;;;;;9.10;6.03;;;8.20;99.90;;;7.89;100.00;100171.91;5016239;28;20053;-79
2023/11/08 05:43:58;;;;;;;9.50;6.35;;;8.20;99.90;;;7.92;100.00;100176.09;5013749;28;20042;-77
2023/11/08 05:46:28;;;;;;;11.82;6.38;;;8.20;99.90;;;7.99;100.00;100181.53;5017652;28;20029;-79
2023/11/08 05:49:00;;;;;;;13.15;6.57;;;8.20;99.90;;;7.97;100.00;100162.72;5017350;28;20052;-78
2023/11/08 05:51:27;;;;;;;9.88;5.95;;;8.30;99.90;;;7.93;100.00;100156.03;5011719;28;20033;-81
2023/11/08 05:53:54;;;;;;;12.10;6.35;;;8.30;99.90;;;8.04;100.00;100181.72;5017869;28;20068;-76
2023/11/08 05:56:20;;;;;;;11.15;6.43;;;8.30;99.90;;;7.98;100.00;100169.00;5016842;28;20048;-76
2023/11/08 05:58:46;;;;;;;11.85;6.60;;;8.30;99.90;;;8.00;100.00;100173.16;5011815;28;20045;-76
2023/11/08 06:01:15;;;;;;;10.07;6.72;;;8.40;99.90;;;8.09;100.00;100186.50;5013984;28;20030;-76
2023/11/08 06:03:42;;;;;;;10.48;7.45;;;8.40;99.90;;;8.11;100.00;100187.97;5038424;28;20065;-76
2023/11/08 06:06:08;;;;;;;10.70;6.78;;;8.40;99.90;;;8.10;100.00;100186.31;5018470;28;20038;-78
2023/11/08 06:08:33;;;;;;;14.60;7.30;;;8.50;99.90;;;8.16;100.00;100204.47;5015018;28;20128;-76
2023/11/08 06:10:59;;;;;;;13.73;7.68;;;8.50;99.90;;;8.20;100.00;100205.72;5021135;28;20124;-77
2023/11/08 06:13:25;;;;;;;12.95;7.93;;;8.50;99.90;;;8.23;100.00;100199.03;5028098;28;20099;-76
2023/11/08 06:15:50;;;;;;;12.57;7.85;;;8.50;99.90;;;8.12;100.00;100197.78;5014616;28;20048;-76
2023/11/08 06:18:20;;;;;;;10.55;6.85;;;8.50;99.90;;;8.10;100.00;100191.75;5015675;28;20029;-77
2023/11/08 06:20:45;;;;;;;11.07;6.95;;;8.50;99.90;;;8.09;100.00;100203.66;5012085;28;20049;-77
2023/11/08 06:23:11;;;;;;;11.35;7.72;;;8.40;99.90;;;8.07;100.00;100200.31;5018033;28;20096;-77
2023/11/08 06:25:37;;;;;;;12.23;7.63;;;8.40;99.90;;;8.01;100.00;100191.13;5017328;28;20044;-77
2023/11/08 06:28:03;;;;;;;13.30;7.47;;;8.40;99.90;;;8.01;100.00;100196.56;5016774;28;20421;-77
2023/11/08 06:30:28;;;;;;;14.15;8.02;;;8.30;99.90;;;8.01;100.00;100206.59;5011690;28;20057;-76
2023/11/08 06:32:55;;;;;;;13.32;8.02;;;8.30;99.90;;;7.98;100.00;100204.31;5016168;28;20413;-76
2023/11/08 06:35:21;;;;;;;13.60;7.72;;;8.30;99.90;;;8.04;100.00;100206.19;5013077;28;20067;-77
2023/11/08 06:37:47;;;;;;;11.60;7.85;;;8.40;99.90;;;8.10;100.00;100216.19;5018319;28;20047;-76
2023/11/08 06:40:13;;;;;;;13.77;8.30;;;8.40;99.90;;;8.11;100.00;100215.16;5011312;28;20041;-76
2023/11/08 06:42:39;;;;;;;15.43;8.20;;;8.50;99.90;;;8.20;100.00;100216.59;5015808;28;20073;-77
2023/11/08 06:45:06;;;;;;;14.45;8.32;;;8.50;99.90;;;8.23;100.00;100219.94;5023264;28;20481;-75
2023/11/08 06:47:33;;;;;;;13.05;8.27;;;8.50;99.90;;;8.28;100.00;100225.59;5012318;28;20038;-77
2023/11/08 06:49:59;;;;;;;13.23;8.25;;;8.60;99.90;;;8.33;100.00;100212.19;5015651;28;20037;-76
2023/11/08 06:52:25;;;;;;;11.40;7.75;;;8.60;99.90;;;8.37;100.00;100221.59;5020171;28;20033;-76
2023/11/08 06:54:51;;;;;;;14.80;7.95;;;8.60;99.90;;;8.39;100.00;100227.63;5017187;28;20460;-76
2023/11/08 06:57:17;;;;;;;15.57;8.77;;;8.70;99.90;;;8.33;100.00;100223.88;5016820;28;20034;-75
2023/11/08 06:59:43;;;;;;;12.38;8.00;;;8.70;99.90;;;8.44;100.00;100235.16;5017897;28;20053;-75
2023/11/08 07:02:09;;;;;;;13.10;8.02;;;8.80;99.90;;;8.49;100.00;100241.69;5036554;28;20501;-75
2023/11/08 07:04:35;;;;;;;12.15;7.72;;;8.80;99.90;;;8.55;100.00;100245.41;5015632;28;20069;-75
2023/11/08 07:07:01;;;;;;;13.15;7.68;;;8.90;99.90;;;8.58;100.00;100247.69;5022056;28;20046;-76
2023/11/08 07:09:28;;;;;;;12.90;8.23;;;8.90;99.90;;;8.65;100.00;100253.13;5019994;28;20501;-75
2023/11/08 07:11:54;;;;;;;12.45;7.05;;;8.90;99.90;;;8.59;100.00;100245.81;5035354;28;20034;-76
2023/11/08 07:14:19;;;;;;;10.63;7.07;;;9.00;99.90;;;8.72;100.00;100255.81;5021164;28;20439;-76
2023/11/08 07:16:45;;;;;;;11.55;7.13;;;9.00;99.90;;;8.74;100.00;100254.53;5021446;28;20472;-75
2023/11/08 07:19:14;;;;;;;9.32;7.05;;;9.00;99.90;;;8.75;100.00;100267.13;5015738;28;20437;-76
2023/11/08 07:21:40;;;;;;;10.32;7.18;;;9.10;99.90;;;8.77;100.00;100269.59;5036023;28;20038;-76
2023/11/08 07:24:09;;;;;;;10.23;7.50;;;9.10;99.90;;;8.76;100.00;100257.06;5016569;28;20038;-77
2023/11/08 07:26:35;;;;;;;12.88;7.72;;;9.10;99.90;;;8.84;100.00;100264.16;5021988;28;20049;-76
2023/11/08 07:29:04;;;;;;;12.27;7.72;;;9.20;99.90;;;8.87;100.00;100263.72;5022760;28;20497;-77
2023/11/08 07:31:34;;;;;;;11.18;7.22;;;9.20;99.90;;;8.97;100.00;100274.16;5030903;28;20037;-77
2023/11/08 07:34:00;;;;;;;11.23;8.25;;;9.30;99.90;;;8.89;100.00;100276.06;5023830;28;20045;-77
2023/11/08 07:36:29;;;;;;;12.27;8.20;;;9.30;99.90;;;8.97;100.00;100283.13;5016314;28;20132;-77
2023/11/08 07:39:01;;;;;;;12.30;7.60;;;9.30;99.90;;;9.06;100.00;100294.63;5017866;28;20125;-76
2023/11/08 07:41:27;;;;;;;12.18;7.47;;;9.40;99.90;;;9.10;100.00;100305.91;5014993;28;20149;-77
2023/11/08 07:43:52;;;;;;;11.77;7.40;;;9.50;99.90;;;9.09;100.00;100302.34;5014927;28;20037;-76
2023/11/08 07:46:18;;;;;;;10.73;7.18;;;9.50;99.90;;;9.10;100.00;100300.47;5018814;28;20034;-78
2023/11/08 07:48:44;;;;;;;9.82;6.68;;;9.50;99.90;;;9.13;100.00;100306.31;5020174;28;20108;-77
2023/11/08 07:51:10;;;;;;;14.18;7.35;;;9.50;99.90;;;9.16;100.00;100302.31;5018300;28;20469;-78
2023/11/08 07:53:36;;;;;;;10.40;6.45;;;9.60;99.90;;;9.22;100.00;100317.78;5041162;28;20083;-77
2023/11/08 07:56:04;;;;;;;12.27;6.53;;;9.60;99.90;;;9.13;100.00;100310.94;5029325;28;20109;-77
2023/11/08 07:58:30;;;;;;;11.50;7.07;;;9.60;99.90;;;9.25;100.00;100317.34;5023605;28;20047;-78
2023/11/08 08:00:56;;;;;;;11.27;6.85;;;9.60;99.90;;;9.21;100.00;100325.13;5039342;28;20121;-78
2023/11/08 08:03:22;;;;;;;11.18;6.40;;;9.60;99.90;;;9.24;100.00;100325.75;5022921;28;20041;-77
2023/11/08 08:05:51;;;;;;;13.38;6.22;;;9.60;99.90;;;9.32;100.00;100330.94;5022398;28;20125;-79
2023/11/08 08:08:18;;;;;;;11.80;6.35;;;9.60;99.90;;;9.26;100.00;100319.03;5024678;28;20068;-77
2023/11/08 08:10:45;;;;;;;8.30;5.82;;;9.60;99.90;;;9.39;100.00;100325.47;5014170;28;20033;-78
2023/11/08 08:13:13;;;;;;;9.33;5.33;;;9.70;99.90;;;9.70;100.00;100315.66;5013276;28;20823;-79
2023/11/08 08:15:40;;;;;;;9.23;5.72;;;10.00;99.90;;;9.77;100.00;100327.34;5014245;28;20033;-79
2023/11/08 08:18:07;;;;;;;8.10;5.37;;;10.10;99.90;;;9.60;100.00;100322.44;5015274;28;20040;-79
2023/11/08 08:20:32;;;;;;;7.97;5.40;;;10.10;99.90;;;9.61;100.00;100329.56;5015134;28;20261;-78
2023/11/08 08:22:58;;;;;;;10.10;5.13;;;10.10;99.90;;;9.74;100.00;100335.97;5014566;28;20066;-78
2023/11/08 08:25:24;;;;;;;8.48;5.05;;;10.00;99.90;;;9.75;100.00;100345.81;5014162;28;20371;-77
2023/11/08 08:27:50;;;;;;;7.60;4.82;;;10.10;99.90;;;9.67;100.00;100332.44;5026429;28;21159;-79
2023/11/08 08:30:16;;;;;;;7.35;4.82;;;10.10;99.90;;;9.87;100.00;100348.66;5021618;28;20049;-79
2023/11/08 08:32:44;;;;;;;6.72;5.00;;;10.20;99.90;;;9.89;100.00;100347.41;5043384;28;20117;-79
2023/11/08 08:35:10;;;;;;;7.70;5.32;;;10.30;99.90;;;9.72;100.00;100338.06;5022378;28;20188;-80
2023/11/08 08:37:36;;;;;;;9.95;5.30;;;10.20;99.90;;;9.69;100.00;100350.25;5025582;28;20037;-80
2023/11/08 08:40:10;;;;;;;9.95;5.13;;;10.20;99.90;;;9.60;100.00;100362.44;5022620;28;20037;-80
2023/11/08 08:42:37;;;;;;;7.95;5.53;;;10.10;99.90;;;9.57;100.00;100344.66;5027197;28;20038;-79
2023/11/08 08:45:04;;;;;;;9.70;5.60;;;10.10;99.90;;;9.51;100.00;100356.41;5030103;28;20470;-80
2023/11/08 08:47:30;;;;;;;7.50;5.10;;;10.00;99.90;;;9.57;100.00;100363.72;5024816;28;20103;-79
2023/11/08 08:49:58;;;;;;;10.52;5.35;;;10.00;99.90;;;9.57;100.00;100354.69;5040740;28;20482;-78
2023/11/08 08:52:25;;;;;;;;;;;10.10;99.90;;;9.81;100.00;100357.72;5021257;28;20040;-79
2023/11/08 08:54:51;;;;;;;8.95;5.13;;;10.10;99.90;;;9.86;100.00;100364.19;5021422;28;19925;-78
2023/11/08 08:57:16;;;;;;;8.60;5.38;;;10.30;99.90;;;9.86;100.00;100345.13;5017998;28;20532;-78
2023/11/08 08:59:43;;;;;;;8.55;4.97;;;10.40;99.90;;;10.17;100.00;100361.66;5027831;28;20045;-79
2023/11/08 09:02:10;;;;;;;9.57;4.75;;;10.50;99.90;;;10.11;100.00;100360.69;5029785;28;20080;-78
2023/11/08 09:04:36;;;;;;;9.93;5.10;;;10.60;99.90;;;10.10;100.00;100361.72;5022869;28;20034;-79
2023/11/08 09:07:03;;;;;;;8.80;4.75;;;10.60;99.90;;;10.13;100.00;100342.22;5023438;28;20038;-79
2023/11/08 09:09:30;;;;;;;7.90;4.55;;;10.60;99.90;;;10.44;100.00;100364.22;5022974;28;20041;-78
2023/11/08 09:11:57;;;;;;;11.07;4.82;;;10.80;99.90;;;10.26;100.00;100370.41;5020858;28;20064;-80
2023/11/08 09:14:23;;;;;;;9.25;4.68;;;10.80;99.90;;;10.09;100.00;100368.25;5020213;28;20432;-79
2023/11/08 09:16:49;;;;;;;7.80;4.50;;;10.70;99.90;;;10.15;100.00;100382.84;5022091;28;20037;-77
2023/11/08 09:19:17;;;;;;;8.48;4.47;;;10.70;99.90;;;10.08;100.00;100388.38;5017424;28;20051;-78
2023/11/08 09:21:43;;;;;;;7.45;3.95;;;10.50;99.90;;;10.00;100.00;100388.63;5023416;28;20042;-76
2023/11/08 09:24:10;;;;;;;9.70;4.30;;;10.40;99.90;;;9.76;100.00;100388.34;5024761;28;20899;-78
2023/11/08 09:26:37;;;;;;;7.80;4.28;;;10.30;99.90;;;9.74;100.00;100380.41;5031005;28;20091;-77
2023/11/08 09:29:03;;;;;;;7.47;4.40;;;10.30;99.90;;;9.81;100.00;100377.59;5029281;28;20101;-77
2023/11/08 09:31:29;;;;;;;7.55;4.20;;;10.30;99.90;;;9.96;100.00;100387.38;5028933;28;20060;-78
2023/11/08 09:34:00;;;;;;;6.47;4.05;;;10.40;99.90;;;10.16;100.00;100398.16;5026027;28;20030;-78
2023/11/08 09:36:27;;;;;;;7.03;4.00;;;10.50;99.90;;;10.17;100.00;100381.59;5020683;28;20037;-78
2023/11/08 09:38:53;;;;;;;5.30;3.47;;;10.60;99.90;;;10.28;100.00;100377.31;5028539;28;20052;-77
2023/11/08 09:41:21;;;;;;;7.68;3.55;;;10.70;99.90;;;10.36;100.00;100379.75;5020472;28;20698;-78
2023/11/08 09:43:51;;;;;;;9.70;4.20;;;10.80;99.90;;;10.81;100.00;100394.31;5019022;28;20493;-78
2023/11/08 09:46:17;;;;;;;7.40;3.65;;;11.00;99.90;;;10.92;100.00;100398.22;5016432;28;20044;-78
2023/11/08 09:48:45;;;;;;;9.63;3.88;;;11.30;99.90;;;11.11;100.00;100406.41;5017313;28;20062;-78
2023/11/08 09:51:13;;;;;;;6.95;3.38;;;11.50;99.90;;;10.79;100.00;100393.72;5025690;28;20034;-78
2023/11/08 09:53:41;;;;;;;6.55;3.53;;;11.40;99.90;;;10.51;100.00;100392.28;5018220;28;20030;-78
2023/11/08 09:56:09;;;;;;;6.68;3.83;;;11.20;99.90;;;10.64;100.00;100397.59;5020877;28;20507;-79
2023/11/08 09:58:37;;;;;;;7.63;3.83;;;11.10;99.90;;;11.12;100.00;100413.53;5017675;28;20030;-79
2023/11/08 10:01:05;;;;;;;8.35;3.70;;;11.30;99.90;;;10.88;100.00;100406.00;5014166;28;20033;-77
2023/11/08 10:03:34;;;;;;;6.30;3.70;;;11.40;99.90;;;10.91;100.00;100402.00;5014032;28;20478;-78
2023/11/08 10:06:01;;;;;;;7.75;3.72;;;11.40;99.90;;;10.70;100.00;100398.63;5014705;28;20354;-79
2023/11/08 10:08:26;;;;;;;6.05;3.53;;;11.30;99.90;;;10.69;100.00;100401.56;5028531;28;20112;-78
2023/11/08 10:10:58;;;;;;;5.82;3.80;;;11.10;99.90;;;10.57;100.00;100396.00;5021487;28;20045;-78
2023/11/08 10:13:42;;;;;;;8.38;3.40;;;11.10;99.90;;;10.59;100.00;100410.25;5026734;28;20132;-79